createdAt,value
2018-12-24T00:00:48.515Z,85.97
2018-12-24T00:03:18.681Z,85.78
2018-12-24T00:05:49.985Z,86.16
2018-12-24T00:08:18.744Z,86.39
2018-12-24T00:10:47.286Z,86.11
2018-12-24T00:13:16.184Z,85.87
2018-12-24T00:15:44.752Z,85.87
2018-12-24T00:18:15.315Z,85.90
2018-12-24T00:20:43.945Z,85.87
2018-12-24T00:23:12.564Z,85.94
2018-12-24T00:25:41.185Z,85.94
2018-12-24T00:28:09.810Z,85.73
2018-12-24T00:30:38.321Z,85.75
2018-12-24T00:33:07.068Z,85.92
2018-12-24T00:35:35.639Z,86.24
2018-12-24T00:38:04.389Z,86.62
2018-12-24T00:40:32.982Z,87.16
2018-12-24T00:43:01.588Z,87.63
2018-12-24T00:45:30.130Z,89.60
2018-12-24T00:47:58.856Z,87.89
2018-12-24T00:50:27.449Z,88.30
2018-12-24T00:52:56.067Z,88.46
2018-12-24T00:55:24.923Z,88.05
2018-12-24T00:57:53.714Z,88.15
2018-12-24T01:00:25.059Z,87.97
2018-12-24T01:02:53.843Z,87.72
2018-12-24T01:05:22.387Z,88.47
2018-12-24T01:07:51.006Z,88.47
2018-12-24T01:10:19.596Z,88.26
2018-12-24T01:12:48.209Z,88.21
2018-12-24T01:15:16.846Z,88.37
2018-12-24T01:17:45.380Z,88.04
2018-12-24T01:20:13.965Z,88.10
2018-12-24T01:22:42.495Z,87.91
2018-12-24T01:25:11.242Z,87.53
2018-12-24T01:27:39.778Z,87.70
2018-12-24T01:30:08.576Z,87.84
2018-12-24T01:32:37.129Z,87.83
2018-12-24T01:35:06.121Z,88.25
2018-12-24T01:37:34.719Z,88.25
2018-12-24T01:40:03.431Z,87.97
2018-12-24T01:42:33.573Z,87.93
2018-12-24T01:45:02.404Z,87.95
2018-12-24T01:47:31.037Z,87.72
2018-12-24T01:49:59.836Z,87.54
2018-12-24T01:52:28.465Z,87.72
2018-12-24T01:54:58.374Z,88.07
2018-12-24T01:57:26.927Z,87.90
2018-12-24T02:00:21.641Z,87.74
2018-12-24T02:02:50.312Z,87.85
2018-12-24T02:05:18.932Z,88.29
2018-12-24T02:07:47.467Z,88.53
2018-12-24T02:10:17.135Z,88.24
2018-12-24T02:12:45.689Z,88.38
2018-12-24T02:15:14.232Z,88.18
2018-12-24T02:17:42.803Z,88.11
2018-12-24T02:20:11.377Z,87.74
2018-12-24T02:22:39.962Z,88.01
2018-12-24T02:25:08.747Z,87.83
2018-12-24T02:27:37.390Z,87.58
2018-12-24T02:30:06.398Z,88.08
2018-12-24T02:32:35.088Z,88.08
2018-12-24T02:35:03.699Z,87.83
2018-12-24T02:37:32.301Z,87.86
2018-12-24T02:40:00.901Z,86.86
2018-12-24T02:42:29.520Z,86.86
2018-12-24T02:44:58.114Z,87.10
2018-12-24T02:47:26.639Z,86.81
2018-12-24T02:49:55.164Z,86.89
2018-12-24T02:52:23.778Z,86.62
2018-12-24T02:54:52.402Z,86.67
2018-12-24T02:57:21.103Z,86.10
2018-12-24T02:59:49.605Z,85.79
2018-12-24T03:02:18.239Z,85.55
2018-12-24T03:04:48.329Z,85.70
2018-12-24T03:07:16.915Z,85.98
2018-12-24T03:09:45.573Z,85.68
2018-12-24T03:12:14.266Z,85.85
2018-12-24T03:14:42.928Z,85.57
2018-12-24T03:17:13.088Z,85.80
2018-12-24T03:19:41.736Z,85.57
2018-12-24T03:22:10.265Z,84.76
2018-12-24T03:24:38.842Z,83.84
2018-12-24T03:27:07.557Z,83.69
2018-12-24T03:29:37.648Z,83.59
2018-12-24T03:32:06.272Z,83.18
2018-12-24T03:34:34.820Z,82.72
2018-12-24T03:37:03.565Z,82.17
2018-12-24T03:39:32.212Z,81.94
2018-12-24T03:42:00.801Z,82.13
2018-12-24T03:44:29.454Z,82.79
2018-12-24T03:46:58.637Z,82.87
2018-12-24T03:49:27.231Z,82.87
2018-12-24T03:51:55.913Z,83.18
2018-12-24T03:54:24.465Z,83.50
2018-12-24T03:56:55.312Z,83.80
2018-12-24T03:59:23.913Z,84.26
2018-12-24T04:01:52.593Z,84.26
2018-12-24T04:04:21.146Z,84.77
2018-12-24T04:06:49.774Z,83.01
2018-12-24T04:09:18.306Z,83.01
2018-12-24T04:11:47.019Z,83.14
2018-12-24T04:14:15.709Z,82.66
2018-12-24T04:16:44.367Z,82.76
2018-12-24T04:19:15.792Z,82.62
2018-12-24T04:21:44.377Z,82.43
2018-12-24T04:24:14.107Z,82.48
2018-12-24T04:26:42.658Z,82.23
2018-12-24T04:29:11.219Z,82.23
2018-12-24T04:31:39.812Z,82.09
2018-12-24T04:34:08.404Z,81.57
2018-12-24T04:36:37.090Z,81.57
2018-12-24T04:39:06.311Z,81.20
2018-12-24T04:41:35.053Z,81.15
2018-12-24T04:44:03.762Z,81.16
2018-12-24T04:46:33.570Z,80.85
2018-12-24T04:49:02.210Z,80.58
2018-12-24T04:51:30.862Z,80.48
2018-12-24T04:53:59.640Z,80.74
2018-12-24T04:56:28.416Z,80.80
2018-12-24T04:58:56.985Z,81.01
2018-12-24T05:01:25.585Z,81.24
2018-12-24T05:03:54.128Z,81.35
2018-12-24T05:06:22.764Z,80.82
2018-12-24T05:08:51.583Z,81.00
2018-12-24T05:11:20.237Z,80.89
2018-12-24T05:13:48.744Z,80.77
2018-12-24T05:16:17.299Z,81.10
2018-12-24T05:18:45.911Z,80.68
2018-12-24T05:21:14.456Z,81.18
2018-12-24T05:23:43.000Z,81.41
2018-12-24T05:26:11.531Z,81.03
2018-12-24T05:28:40.151Z,81.45
2018-12-24T05:31:08.705Z,81.61
2018-12-24T05:33:37.420Z,81.07
2018-12-24T05:36:06.003Z,81.07
2018-12-24T05:38:34.545Z,81.25
2018-12-24T05:41:03.128Z,80.80
2018-12-24T05:43:31.754Z,81.07
2018-12-24T05:46:00.355Z,80.56
2018-12-24T05:48:28.999Z,80.64
2018-12-24T05:50:57.565Z,80.23
2018-12-24T05:53:26.115Z,79.72
2018-12-24T05:55:54.645Z,79.59
2018-12-24T05:58:23.182Z,78.81
2018-12-24T06:00:51.716Z,79.04
2018-12-24T06:03:20.303Z,79.00
2018-12-24T06:05:48.826Z,78.75
2018-12-24T06:08:17.353Z,78.64
2018-12-24T06:10:45.896Z,78.27
2018-12-24T06:13:14.522Z,78.42
2018-12-24T06:15:43.081Z,78.89
2018-12-24T06:18:11.842Z,79.31
2018-12-24T06:20:40.379Z,79.38
2018-12-24T06:23:08.915Z,78.96
2018-12-24T06:25:37.566Z,78.79
2018-12-24T06:28:06.169Z,78.56
2018-12-24T06:30:35.546Z,78.50
2018-12-24T06:33:04.080Z,78.35
2018-12-24T06:35:32.816Z,78.47
2018-12-24T06:38:01.350Z,78.56
2018-12-24T06:40:29.874Z,78.17
2018-12-24T06:42:58.448Z,77.25
2018-12-24T06:45:26.992Z,77.54
2018-12-24T06:47:56.406Z,76.61
2018-12-24T06:50:24.963Z,76.45
2018-12-24T06:52:53.528Z,76.78
2018-12-24T06:55:22.138Z,76.47
2018-12-24T06:57:50.691Z,76.29
2018-12-24T07:00:19.277Z,75.32
2018-12-24T07:02:47.835Z,75.17
2018-12-24T07:05:16.388Z,75.26
2018-12-24T07:07:45.031Z,75.21
2018-12-24T07:10:13.592Z,74.93
2018-12-24T07:12:42.122Z,74.22
2018-12-24T07:15:10.670Z,73.86
2018-12-24T07:17:39.281Z,73.51
2018-12-24T07:20:07.840Z,73.24
2018-12-24T07:22:36.430Z,73.36
2018-12-24T07:25:05.132Z,74.02
2018-12-24T07:27:33.690Z,73.92
2018-12-24T07:30:02.241Z,74.42
2018-12-24T07:32:30.794Z,74.08
2018-12-24T07:34:59.358Z,74.27
2018-12-24T07:37:27.939Z,74.35
2018-12-24T07:39:56.508Z,74.08
2018-12-24T07:42:25.312Z,74.63
2018-12-24T07:44:54.158Z,75.43
2018-12-24T07:47:22.683Z,76.24
2018-12-24T07:49:51.253Z,75.28
2018-12-24T07:52:19.787Z,75.06
2018-12-24T07:54:48.354Z,74.63
2018-12-24T07:57:16.881Z,74.82
2018-12-24T07:59:45.466Z,74.07
2018-12-24T08:02:14.001Z,74.03
2018-12-24T08:04:42.548Z,74.26
2018-12-24T08:07:11.109Z,74.10
2018-12-24T08:09:39.726Z,73.72
2018-12-24T08:12:08.376Z,71.70
2018-12-24T08:14:36.932Z,72.11
2018-12-24T08:17:05.610Z,72.30
2018-12-24T08:19:34.414Z,71.56
2018-12-24T08:22:03.187Z,72.35
2018-12-24T08:24:31.786Z,70.71
2018-12-24T08:27:00.384Z,70.76
2018-12-24T08:29:28.922Z,70.46
2018-12-24T08:31:57.550Z,70.88
2018-12-24T08:34:26.116Z,71.29
2018-12-24T08:36:54.851Z,71.55
2018-12-24T08:39:23.451Z,71.25
2018-12-24T08:41:52.100Z,71.67
2018-12-24T08:44:20.677Z,72.05
2018-12-24T08:46:49.232Z,72.83
2018-12-24T08:49:17.966Z,72.99
2018-12-24T08:51:46.516Z,72.72
2018-12-24T08:54:15.080Z,72.06
2018-12-24T08:56:43.722Z,72.13
2018-12-24T08:59:12.269Z,71.90
2018-12-24T09:01:40.819Z,71.56
2018-12-24T09:04:11.094Z,71.92
2018-12-24T09:06:39.650Z,72.37
2018-12-24T09:09:08.206Z,72.92
2018-12-24T09:11:36.746Z,73.21
2018-12-24T09:14:05.299Z,72.86
2018-12-24T09:16:33.830Z,73.21
2018-12-24T09:19:02.370Z,73.58
2018-12-24T09:21:30.929Z,73.59
2018-12-24T09:23:59.447Z,73.47
2018-12-24T09:26:28.133Z,73.64
2018-12-24T09:28:56.793Z,73.33
2018-12-24T09:31:25.331Z,73.01
2018-12-24T09:33:53.885Z,73.62
2018-12-24T09:36:22.484Z,73.44
2018-12-24T09:38:51.110Z,73.41
2018-12-24T09:41:19.666Z,72.35
2018-12-24T09:43:48.405Z,72.82
2018-12-24T09:46:16.991Z,73.16
2018-12-24T09:48:45.816Z,73.03
2018-12-24T09:51:14.371Z,72.24
2018-12-24T09:53:42.995Z,72.71
2018-12-24T09:56:12.553Z,71.92
2018-12-24T09:58:41.143Z,72.13
2018-12-24T10:01:09.629Z,72.33
2018-12-24T10:03:38.534Z,72.67
2018-12-24T10:06:07.637Z,72.78
2018-12-24T10:08:38.387Z,72.98
2018-12-24T10:11:06.940Z,72.72
2018-12-24T10:13:35.527Z,72.03
2018-12-24T10:16:04.143Z,73.99
2018-12-24T10:18:32.715Z,72.44
2018-12-24T10:21:01.355Z,72.01
2018-12-24T10:23:29.960Z,70.23
2018-12-24T10:25:58.506Z,71.37
2018-12-24T10:28:27.066Z,71.03
2018-12-24T10:30:56.519Z,70.10
2018-12-24T10:33:25.117Z,68.88
2018-12-24T10:35:53.644Z,69.39
2018-12-24T10:38:22.203Z,70.07
2018-12-24T10:40:53.401Z,71.05
2018-12-24T10:43:21.976Z,71.49
2018-12-24T10:45:50.564Z,71.91
2018-12-24T10:48:19.376Z,72.79
2018-12-24T10:50:47.992Z,73.07
2018-12-24T10:53:16.548Z,71.83
2018-12-24T10:55:45.237Z,71.54
2018-12-24T10:58:13.968Z,71.76
2018-12-24T11:00:42.595Z,70.78
2018-12-24T11:03:11.159Z,69.42
2018-12-24T11:05:39.685Z,68.88
2018-12-24T11:08:08.227Z,67.56
2018-12-24T11:10:36.782Z,68.61
2018-12-24T11:13:05.478Z,68.19
2018-12-24T11:15:34.917Z,68.47
2018-12-24T11:18:03.471Z,66.69
2018-12-24T11:20:32.400Z,67.44
2018-12-24T11:23:00.976Z,67.70
2018-12-24T11:25:29.521Z,66.87
2018-12-24T11:27:58.094Z,66.33
2018-12-24T11:30:26.644Z,66.80
2018-12-24T11:32:55.305Z,66.06
2018-12-24T11:35:23.883Z,64.81
2018-12-24T11:37:52.457Z,65.40
2018-12-24T11:40:21.244Z,65.61
2018-12-24T11:42:49.807Z,65.40
2018-12-24T11:45:18.492Z,65.11
2018-12-24T11:47:47.173Z,65.37
2018-12-24T11:50:15.773Z,64.33
2018-12-24T11:52:44.548Z,65.67
2018-12-24T11:55:13.314Z,65.45
2018-12-24T11:57:41.833Z,65.87
2018-12-24T12:00:10.441Z,65.81
2018-12-24T12:02:39.068Z,66.37
2018-12-24T12:05:08.377Z,65.65
2018-12-24T12:07:37.701Z,67.11
2018-12-24T12:10:06.811Z,65.82
2018-12-24T12:12:36.974Z,65.72
2018-12-24T12:15:05.852Z,66.29
2018-12-24T12:17:34.388Z,66.00
2018-12-24T12:20:02.995Z,65.58
2018-12-24T12:22:33.194Z,65.22
2018-12-24T12:25:01.843Z,64.75
2018-12-24T12:27:30.422Z,65.63
2018-12-24T12:29:59.013Z,65.65
2018-12-24T12:32:27.578Z,65.06
2018-12-24T12:34:56.121Z,64.77
2018-12-24T12:37:24.690Z,64.20
2018-12-24T12:39:53.354Z,63.65
2018-12-24T12:42:21.928Z,64.62
2018-12-24T12:44:53.957Z,64.76
2018-12-24T12:47:22.507Z,63.77
2018-12-24T12:49:51.056Z,64.02
2018-12-24T12:52:19.613Z,65.63
2018-12-24T12:54:48.144Z,64.35
2018-12-24T12:57:16.806Z,65.35
2018-12-24T12:59:45.572Z,65.21
2018-12-24T13:02:14.281Z,65.25
2018-12-24T13:04:42.865Z,65.87
2018-12-24T13:07:11.527Z,65.54
2018-12-24T13:09:42.388Z,65.70
2018-12-24T13:12:11.068Z,65.86
2018-12-24T13:14:41.179Z,65.09
2018-12-24T13:17:09.746Z,65.10
2018-12-24T13:19:38.404Z,65.53
2018-12-24T13:22:06.961Z,66.52
2018-12-24T13:24:35.528Z,66.54
2018-12-24T13:27:04.105Z,67.10
2018-12-24T13:29:32.682Z,67.90
2018-12-24T13:32:01.231Z,67.76
2018-12-24T13:34:29.763Z,67.93
2018-12-24T13:36:58.296Z,67.77
2018-12-24T13:39:26.876Z,67.82
2018-12-24T13:41:55.427Z,68.00
2018-12-24T13:44:23.992Z,67.88
2018-12-24T13:46:52.709Z,67.81
2018-12-24T13:50:07.443Z,67.61
2018-12-24T13:52:35.914Z,67.46
2018-12-24T13:55:04.479Z,66.58
2018-12-24T13:57:32.970Z,66.49
2018-12-24T14:00:01.390Z,66.43
2018-12-24T14:02:29.842Z,66.79
2018-12-24T14:04:58.339Z,66.44
2018-12-24T14:07:26.799Z,66.95
2018-12-24T14:09:55.595Z,67.78
2018-12-24T14:12:24.068Z,67.75
2018-12-24T14:14:52.647Z,68.11
2018-12-24T14:17:21.136Z,68.16
2018-12-24T14:19:49.735Z,68.54
2018-12-24T14:22:18.193Z,68.78
2018-12-24T14:24:46.621Z,68.81
2018-12-24T14:27:15.149Z,68.63
2018-12-24T14:29:45.500Z,68.41
2018-12-24T14:32:13.804Z,68.52
2018-12-24T14:34:42.258Z,68.14
2018-12-24T14:37:10.844Z,68.33
2018-12-24T14:39:39.300Z,68.56
2018-12-24T14:42:07.936Z,69.07
2018-12-24T14:44:36.468Z,68.66
2018-12-24T14:47:05.073Z,68.47
2018-12-24T14:49:33.656Z,68.15
2018-12-24T14:52:02.148Z,68.56
2018-12-24T14:54:30.725Z,69.02
2018-12-24T14:56:59.179Z,68.90
2018-12-24T14:59:27.622Z,69.17
2018-12-24T15:01:56.201Z,68.97
2018-12-24T15:04:24.652Z,68.56
2018-12-24T15:06:53.097Z,68.26
2018-12-24T15:09:21.701Z,68.14
2018-12-24T15:11:50.159Z,68.34
2018-12-24T15:14:19.675Z,68.46
2018-12-24T15:16:48.105Z,69.25
2018-12-24T15:19:16.667Z,68.88
2018-12-24T15:21:45.095Z,68.74
2018-12-24T15:24:13.597Z,68.40
2018-12-24T15:26:42.192Z,68.46
2018-12-24T15:29:11.737Z,68.57
2018-12-24T15:31:40.265Z,67.76
2018-12-24T15:34:08.811Z,68.41
2018-12-24T15:36:37.344Z,69.16
2018-12-24T15:39:07.197Z,68.91
2018-12-24T15:41:35.666Z,69.19
2018-12-24T15:44:04.213Z,68.97
2018-12-24T15:46:32.643Z,68.97
2018-12-24T15:49:01.315Z,68.77
2018-12-24T15:51:29.742Z,68.39
2018-12-24T15:53:58.242Z,68.49
2018-12-24T15:56:26.867Z,68.35
2018-12-24T15:58:56.121Z,68.21
2018-12-24T16:01:24.658Z,67.89
2018-12-24T16:03:53.226Z,68.13
2018-12-24T16:06:21.730Z,67.97
2018-12-24T16:08:50.187Z,67.84
2018-12-24T16:11:18.783Z,68.11
2018-12-24T16:13:47.287Z,67.97
2018-12-24T16:16:15.782Z,67.94
2018-12-24T16:18:44.217Z,67.87
2018-12-24T16:21:12.749Z,67.73
2018-12-24T16:23:41.354Z,67.52
2018-12-24T16:26:09.730Z,67.01
2018-12-24T16:28:38.239Z,67.33
2018-12-24T16:31:06.726Z,67.57
2018-12-24T16:33:35.314Z,67.79
2018-12-24T16:36:03.857Z,68.16
2018-12-24T16:38:32.415Z,68.71
2018-12-24T16:41:00.868Z,69.52
2018-12-24T16:43:31.090Z,70.45
2018-12-24T16:45:59.956Z,72.00
2018-12-24T16:48:28.751Z,72.55
2018-12-24T16:50:58.915Z,72.84
2018-12-24T16:53:29.333Z,74.02
2018-12-24T16:55:57.818Z,73.77
2018-12-24T16:58:26.284Z,73.84
2018-12-24T17:00:54.936Z,74.04
2018-12-24T17:03:23.642Z,73.80
2018-12-24T17:05:52.421Z,73.50
2018-12-24T17:08:21.136Z,73.42
2018-12-24T17:10:49.906Z,73.54
2018-12-24T17:13:18.565Z,74.66
2018-12-24T17:15:46.986Z,74.14
2018-12-24T17:18:15.554Z,74.34
2018-12-24T17:20:44.266Z,74.54
2018-12-24T17:23:12.728Z,74.27
2018-12-24T17:25:41.194Z,74.31
2018-12-24T17:28:09.689Z,73.86
2018-12-24T17:30:38.187Z,73.78
2018-12-24T17:33:06.640Z,73.89
2018-12-24T17:35:35.143Z,73.79
2018-12-24T17:38:03.698Z,73.72
2018-12-24T17:40:32.220Z,73.48
2018-12-24T17:43:00.831Z,73.62
2018-12-24T17:45:29.453Z,73.88
2018-12-24T17:47:58.158Z,74.60
2018-12-24T17:50:26.649Z,74.64
2018-12-24T17:52:55.138Z,75.02
2018-12-24T17:55:23.618Z,75.30
2018-12-24T17:57:52.277Z,76.21
2018-12-24T18:00:20.731Z,76.15
2018-12-24T18:02:49.229Z,76.24
2018-12-24T18:05:17.643Z,76.95
2018-12-24T18:07:46.102Z,77.04
2018-12-24T18:10:15.138Z,77.06
2018-12-24T18:12:43.589Z,77.69
2018-12-24T18:15:12.104Z,77.79
2018-12-24T18:17:40.698Z,77.54
2018-12-24T18:20:09.201Z,77.93
2018-12-24T18:22:37.801Z,78.11
2018-12-24T18:25:06.384Z,78.32
2018-12-24T18:27:34.928Z,78.76
2018-12-24T18:30:03.360Z,78.51
2018-12-24T18:32:31.854Z,79.48
2018-12-24T18:35:00.339Z,78.99
2018-12-24T18:37:28.803Z,78.17
2018-12-24T18:39:57.555Z,79.29
2018-12-24T18:42:26.065Z,79.02
2018-12-24T18:44:54.572Z,78.82
2018-12-24T18:47:23.130Z,79.28
2018-12-24T18:49:51.570Z,79.22
2018-12-24T18:52:20.046Z,79.67
2018-12-24T18:54:48.619Z,78.89
2018-12-24T18:57:17.071Z,78.86
2018-12-24T18:59:45.555Z,79.24
2018-12-24T19:02:14.041Z,79.02
2018-12-24T19:04:42.486Z,79.82
2018-12-24T19:07:10.954Z,79.71
2018-12-24T19:09:41.132Z,79.81
2018-12-24T19:12:09.734Z,79.44
2018-12-24T19:14:38.282Z,79.33
2018-12-24T19:17:06.865Z,80.25
2018-12-24T19:19:35.381Z,80.25
2018-12-24T19:22:04.020Z,80.25
2018-12-24T19:24:32.811Z,80.05
2018-12-24T19:27:01.353Z,80.34
2018-12-24T19:29:31.750Z,80.58
2018-12-24T19:32:00.437Z,80.62
2018-12-24T19:34:29.026Z,80.74
2018-12-24T19:36:57.645Z,80.26
2018-12-24T19:39:26.472Z,80.18
2018-12-24T19:41:58.087Z,80.50
2018-12-24T19:44:26.660Z,80.42
2018-12-24T19:46:55.230Z,80.60
2018-12-24T19:49:23.824Z,80.35
2018-12-24T19:51:52.321Z,80.88
2018-12-24T19:54:21.049Z,81.05
2018-12-24T19:56:49.550Z,81.13
2018-12-24T19:59:18.352Z,80.66
2018-12-24T20:01:47.054Z,81.23
2018-12-24T20:04:15.614Z,81.16
2018-12-24T20:06:44.074Z,80.86
2018-12-24T20:09:12.683Z,80.89
2018-12-24T20:11:41.625Z,80.68
2018-12-24T20:14:10.310Z,80.93
2018-12-24T20:16:38.751Z,80.53
2018-12-24T20:19:07.430Z,80.55
2018-12-24T20:21:36.374Z,80.52
2018-12-24T20:24:05.000Z,80.41
2018-12-24T20:26:33.827Z,80.04
2018-12-24T20:29:02.284Z,80.01
2018-12-24T20:31:30.785Z,80.26
2018-12-24T20:33:59.418Z,79.99
2018-12-24T20:36:27.949Z,80.05
2018-12-24T20:38:56.460Z,80.05
2018-12-24T20:41:24.969Z,80.14
2018-12-24T20:43:53.418Z,80.21
2018-12-24T20:46:21.909Z,80.08
2018-12-24T20:48:52.474Z,80.01
2018-12-24T20:51:20.541Z,80.06
2018-12-24T20:53:48.988Z,80.14
2018-12-24T20:56:17.567Z,80.26
2018-12-24T20:58:46.093Z,80.45
2018-12-24T21:01:14.717Z,80.66
2018-12-24T21:03:43.375Z,80.51
2018-12-24T21:06:12.671Z,80.60
2018-12-24T21:08:41.622Z,81.09
2018-12-24T21:11:11.161Z,81.20
2018-12-24T21:13:39.672Z,80.58
2018-12-24T21:16:08.206Z,80.28
2018-12-24T21:18:36.702Z,80.18
2018-12-24T21:21:05.294Z,80.13
2018-12-24T21:23:33.862Z,80.12
2018-12-24T21:26:02.424Z,80.04
2018-12-24T21:28:30.996Z,80.53
2018-12-24T21:30:59.579Z,80.65
2018-12-24T21:33:28.034Z,80.19
2018-12-24T21:35:56.638Z,80.17
2018-12-24T21:38:25.269Z,79.85
2018-12-24T21:40:53.912Z,79.88
2018-12-24T21:43:22.468Z,79.68
2018-12-24T21:45:51.126Z,79.78
2018-12-24T21:48:23.715Z,79.75
2018-12-24T21:50:50.119Z,80.04
2018-12-24T21:53:18.541Z,79.82
2018-12-24T21:55:46.985Z,79.52
2018-12-24T21:58:15.472Z,79.55
2018-12-24T22:00:46.594Z,79.76
2018-12-24T22:03:15.048Z,79.55
2018-12-24T22:05:43.534Z,79.56
2018-12-24T22:08:11.991Z,79.69
2018-12-24T22:10:40.435Z,79.82
2018-12-24T22:13:08.935Z,79.84
2018-12-24T22:15:37.407Z,80.12
2018-12-24T22:18:05.920Z,80.11
2018-12-24T22:20:34.503Z,79.62
2018-12-24T22:23:03.148Z,79.58
2018-12-24T22:25:31.745Z,79.80
2018-12-24T22:28:00.518Z,79.53
2018-12-24T22:30:29.265Z,79.47
2018-12-24T22:32:58.043Z,79.47
2018-12-24T22:35:28.263Z,79.44
2018-12-24T22:37:57.157Z,79.71
2018-12-24T22:40:25.805Z,79.54
2018-12-24T22:42:54.271Z,79.58
2018-12-24T22:45:22.860Z,79.62
2018-12-24T22:47:51.305Z,79.72
2018-12-24T22:50:19.836Z,79.53
2018-12-24T22:52:48.332Z,79.28
2018-12-24T22:55:16.805Z,79.08
2018-12-24T22:57:45.435Z,78.89
2018-12-24T23:00:15.848Z,79.17
2018-12-24T23:02:44.428Z,79.17
2018-12-24T23:05:12.903Z,79.07
2018-12-24T23:07:43.143Z,78.88
2018-12-24T23:10:11.686Z,78.93
2018-12-24T23:12:40.283Z,78.82
2018-12-24T23:15:09.046Z,78.91
2018-12-24T23:17:37.476Z,78.52
2018-12-24T23:20:06.159Z,78.71
2018-12-24T23:22:34.948Z,78.72
2018-12-24T23:25:03.558Z,78.57
2018-12-24T23:27:32.059Z,78.40
2018-12-24T23:30:00.496Z,78.27
2018-12-24T23:32:28.938Z,78.00
2018-12-24T23:34:57.396Z,77.71
2018-12-24T23:37:26.183Z,77.68
2018-12-24T23:39:54.658Z,77.66
2018-12-24T23:42:23.124Z,77.68
2018-12-24T23:44:51.621Z,77.77
2018-12-24T23:47:20.068Z,77.64
2018-12-24T23:49:48.499Z,77.71
2018-12-24T23:52:17.037Z,77.69
2018-12-24T23:54:45.447Z,77.43
2018-12-24T23:57:13.868Z,77.46
2018-12-24T23:59:42.368Z,77.44
